Quick Links (Output Below):   Max & Min Temps   /   Climate Reports   /   Zone Forecasts
River Forecasts   /   Forestry Forecasts   /   Aviation Forecasts   /   Radars   /   Features

Terminal Aerodrome Forecast (Hot Springs)

Pick a Site:
Arkadelphia | El Dorado | Fayetteville | Fort Smith | Harrison | Highfill | Hot Springs | Jonesboro
Little Rock | Monticello | Mountain Home | Pine Bluff | Texarkana
 Forecast 

KHOT 311127Z 3112/0112 06003KT P6SM SCT250
     FM311400 09009KT P6SM SCT250
     FM010000 08003KT P6SM SKC=


 Latest METARs (Observations) 
How to Decode METARs
11Z KHOT 311053Z AUTO 00000KT 10SM CLR 21/17 A3010 RMK AO2 SLP187
         T02060172
         
10Z KHOT 310953Z AUTO 00000KT 10SM CLR 21/17 A3011 RMK AO2 SLP187
         T02110167
         
09Z KHOT 310853Z AUTO 00000KT 10SM CLR 22/17 A3011 RMK AO2 SLP186
         T02170172 55000
         
08Z KHOT 310753Z AUTO 00000KT 10SM CLR 22/17 A3010 RMK AO2 SLP184
         T02170167
         
07Z KHOT 310653Z AUTO 00000KT 10SM CLR 22/17 A3010 RMK AO2 SLP184
         T02220172
         
06Z KHOT 310553Z AUTO 00000KT 10SM CLR 24/17 A3010 RMK AO2 SLP186
         T02390167 10317 20233 403610233 50001
         
05Z KHOT 310453Z AUTO 07005KT 10SM CLR 24/17 A3011 RMK AO2 SLP187
         T02390172
         
04Z KHOT 310353Z AUTO 10005KT 10SM CLR 26/18 A3011 RMK AO2 SLP188
         T02610178
         
03Z KHOT 310253Z AUTO 06004KT 10SM CLR 27/18 A3010 RMK AO2 SLP185
         T02670183 53012
         
02Z KHOT 310153Z AUTO 11006KT 10SM CLR 29/19 A3007 RMK AO2 SLP174
         T02940189
         
***** Today's Observations (Above) *****


Back to Main Page
http://www.srh.noaa.gov/lzk/qfcst.php

USA.gov is the U.S. government's official web portal to all federal, state and local government web resources and services.